チューリッヒ の空港の天気 - METARとTAF

チューリヒ国際空港 ( LSZH / ZRH ) - スイス チューリッヒ
飛行場実況気象(Metar)
観測時間01/17 07:20 CET (01/17 06:20 UTC)
風向・風速北北東 6m/s
視程10km以上
天気現象
全天の8割程度の雲 雲底高度 520m
気温-4℃
湿度80%
気圧1026hPa
METARLSZH 170620Z 02012KT 350V060 9999 BKN017 M04/M07 Q1026 NOSIG
過去の天気等 Google飛行場航空写真 Wunderground天気予報

過去48時間のMETAR

飛行場予報(TAF)
発表時間: 1/17 06:25 CET (1/17 05:25 UTC)
予報対象時間: 17日7時 CET ~ 18日13時 CET
風向・風速北北東 5m/s
視程10km以上
少しの雲 雲底高度 610m
全天の8割程度の雲 雲底高度 1,220m
17日7時 CET ~ 17日8時 CET に一時的に
視程6,000m
天気現象弱いしゅう雪
全天の8割程度の雲 雲底高度 610m
17日7時 CET ~ 17日9時 CET に徐々に
風向・風速北東 6m/s 瞬間風速 13m/s
17日8時 CET ~ 17日21時 CET に 確率 30% で一時的に
天気現象弱い雪
17日11時 CET ~ 17日19時 CET に一時的に
風向・風速北東 8m/s 瞬間風速 15m/s
天気現象低い地吹雪
17日22時 CET ~ 18日1時 CET に徐々に
風向・風速北東 5m/s
TAF LSZH 170525Z 1706/1812 02009KT 9999 FEW020 BKN040 TXM03/1714Z TNM06/1706Z TNM06/1806Z
TEMPO 1706/1707 6000 -SHSN BKN020
BECMG 1706/1708 04012G25KT
PROB30 TEMPO 1707/1720 -SN
TEMPO 1710/1718 04016G30KT DRSN
BECMG 1721/1724 04010KT